Accueil
METAR-TAF:

METAR-TAF

Aéroports :

Aéroport Sandro-Pertini de Turin Caselle

Turin, Italie

latitude: 45-13N, longitude: 007-39E, altitude: 301 m

Observation

Le bulletin a été fait il y a 36 minutes, à 01:20 UTC
Vent 3 kt de sud-ouest, variant entre sud/sud-ouest et ouest
Température 6°C
Humidité 70%
Pression 1017 hPa
Visibilité 10 km ou plus
Nuages épars à une hauteur de 11000 ft

METAR: LIMF 170120Z 23003KT 200V260 9999 SCT110 06/01 Q1017

Heure: 03:56 (01:56 UTC)

Prévision

Le bulletin a été fait il y a 2 heures et 56 minutes, à 23:00 UTC
Prévision valable du 17 à 00 UTC au 17 à 24 UTC
Vent 5 kt de direction variable
Visibilité 10 km ou plus
Nuages fragmentés à une hauteur de 6000 ft

TAF: LIMF 162300Z 1700/1724 VRB05KT 9999 BKN060

Observations et prévisions météorologiques de plus de 4000 aéroports (messages METAR et TAF).

Les stations disponibles sont représentées par des disques jaunes et rouges sur la carte.

Passer la souris dessus pour voir le nom de la station.

Cliquer dessus pour voir les observations et prévisions météorologiques.

Pour changer de carte: cliquez sur les boutons verts avec une croix noire pour zoomer, sur le bouton vert avec un tiret pour effectuer un zoom arrière, ou sur les flèches vertes pour les cartes adjacentes.


METAR-TAF: